Time;durP1;ratioP1;P1;durP2;ratioP2;P2;SDS_P1;SDS_P2;PMS_P1;PMS_P2;Temp;Humidity;BMP_temperature;BMP_pressure;BME280_temperature;BME280_humidity;BME280_pressure;Samples;Min_cycle;Max_cycle;Signal;HPM_P1;HPM_P2
2022/01/04 00:00:44;;;;;;;0.90;0.70;;;;;;;;;;5086326;28;20457;-85
2022/01/04 00:03:10;;;;;;;0.98;0.85;;;9.90;99.90;;;;;;5079185;28;20642;-86
2022/01/04 00:05:37;;;;;;;2.33;0.90;;;9.90;99.90;;;;;;5083322;28;20214;-84
2022/01/04 00:08:08;;;;;;;1.63;0.70;;;9.90;99.90;;;;;;5086192;28;20991;-84
2022/01/04 00:10:33;;;;;;;1.00;0.90;;;9.90;99.90;;;;;;5085654;28;20301;-86
2022/01/04 00:15:44;;;;;;;3.63;1.10;;;9.90;99.90;;;;;;5081311;28;20653;-81
2022/01/04 00:18:10;;;;;;;4.97;0.80;;;9.80;99.90;;;;;;5083042;28;20206;-84
2022/01/04 00:20:36;;;;;;;0.93;0.75;;;9.90;99.90;;;;;;5084976;28;20195;-84
2022/01/04 00:23:02;;;;;;;4.57;0.83;;;9.90;99.90;;;;;;5087179;28;20590;-82
2022/01/04 00:25:28;;;;;;;0.80;0.70;;;9.90;99.90;;;;;;5080005;28;20441;-83
2022/01/04 00:27:53;;;;;;;2.60;1.20;;;9.90;99.90;;;;;;5080189;28;20197;-83
2022/01/04 00:30:19;;;;;;;1.17;0.80;;;9.90;99.90;;;;;;5080878;28;20483;-80
2022/01/04 00:32:45;;;;;;;1.20;0.70;;;10.90;99.90;;;;;;5081732;28;20209;-84
2022/01/04 00:35:10;;;;;;;2.00;1.10;;;9.90;99.90;;;;;;5082518;28;20207;-83
2022/01/04 00:37:36;;;;;;;0.93;0.70;;;10.00;99.90;;;;;;5090540;28;20179;-87
2022/01/04 00:40:02;;;;;;;2.00;1.00;;;;;;;;;;5088758;28;20278;-84
2022/01/04 00:42:28;;;;;;;1.05;0.88;;;10.00;99.90;;;;;;5085166;28;20200;-87
2022/01/04 00:44:53;;;;;;;1.47;1.03;;;10.10;99.90;;;;;;5086224;28;20277;-84
2022/01/04 00:47:26;;;;;;;1.53;0.70;;;10.10;99.90;;;;;;5087663;28;20180;-84
2022/01/04 00:49:51;;;;;;;1.23;0.93;;;10.90;99.90;;;;;;5081870;28;20204;-85
2022/01/04 00:52:17;;;;;;;0.97;0.60;;;10.10;99.90;;;;;;5095564;28;20813;-85
2022/01/04 00:54:43;;;;;;;4.03;0.83;;;10.10;99.90;;;;;;5087554;28;20219;-85
2022/01/04 00:57:08;;;;;;;0.80;0.80;;;10.10;99.90;;;;;;5086254;28;20217;-85
2022/01/04 00:59:34;;;;;;;1.00;0.90;;;10.10;99.90;;;;;;5081428;28;20545;-87
2022/01/04 01:02:00;;;;;;;0.97;0.63;;;10.10;99.90;;;;;;5097167;27;22472;-88
2022/01/04 01:04:25;;;;;;;3.83;1.13;;;10.10;99.90;;;;;;5082146;28;20180;-87
2022/01/04 01:06:51;;;;;;;1.80;1.33;;;10.10;99.90;;;;;;5083200;28;20642;-86
2022/01/04 01:09:17;;;;;;;0.70;0.70;;;;;;;;;;5087285;28;20233;-87
2022/01/04 01:11:43;;;;;;;6.07;0.73;;;10.10;99.90;;;;;;5086220;28;20199;-87
2022/01/04 01:14:09;;;;;;;1.33;0.80;;;;;;;;;;5085589;28;20184;-87
2022/01/04 01:16:34;;;;;;;4.88;1.00;;;10.20;99.90;;;;;;5076926;28;20215;-85
2022/01/04 01:19:00;;;;;;;1.17;1.07;;;;;;;;;;5083956;28;20235;-87
2022/01/04 01:21:26;;;;;;;1.93;0.70;;;10.20;99.90;;;;;;5084163;28;20477;-87
2022/01/04 01:23:52;;;;;;;2.50;1.10;;;10.30;99.90;;;;;;5087785;28;20438;-87
2022/01/04 01:26:17;;;;;;;1.07;0.87;;;10.30;99.90;;;;;;5087577;28;20183;-87
2022/01/04 01:28:43;;;;;;;1.60;1.00;;;;;;;;;;5085863;28;20228;-88
2022/01/04 01:31:10;;;;;;;2.67;1.37;;;;;;;;;;5084492;28;20647;-89
2022/01/04 01:33:35;;;;;;;3.05;1.02;;;10.40;99.90;;;;;;5087995;28;20481;-86
2022/01/04 01:36:01;;;;;;;1.20;1.10;;;10.30;99.90;;;;;;5083291;28;20276;-85
2022/01/04 01:38:27;;;;;;;3.83;0.70;;;10.30;99.90;;;;;;5085566;28;20180;-85
2022/01/04 01:40:53;;;;;;;1.80;1.00;;;10.30;99.90;;;;;;5082846;28;20783;-86
2022/01/04 01:43:19;;;;;;;2.65;1.10;;;10.20;99.90;;;;;;5081939;28;20243;-86
2022/01/04 01:45:46;;;;;;;2.70;0.80;;;10.10;99.90;;;;;;5082160;28;20191;-85
2022/01/04 01:48:12;;;;;;;2.50;1.15;;;10.10;99.90;;;;;;5085103;28;20183;-86
2022/01/04 01:50:38;;;;;;;3.67;0.77;;;10.10;99.90;;;;;;5081933;28;20235;-87
2022/01/04 01:53:04;;;;;;;1.33;0.90;;;;;;;;;;5085538;28;20261;-87
2022/01/04 01:55:29;;;;;;;1.27;0.97;;;10.00;99.90;;;;;;5084452;28;20739;-86
2022/01/04 01:57:55;;;;;;;2.37;1.30;;;;;;;;;;5082002;28;20513;-87
2022/01/04 02:00:24;;;;;;;1.52;0.77;;;9.80;99.90;;;;;;5079401;28;20207;-88
2022/01/04 02:02:50;;;;;;;0.73;0.70;;;9.80;99.90;;;;;;5075007;28;20204;-87
2022/01/04 02:05:15;;;;;;;1.10;0.90;;;9.70;99.90;;;;;;5082545;28;20317;-87
2022/01/04 02:07:42;;;;;;;1.53;1.03;;;9.80;99.90;;;;;;5084033;28;20175;-87
2022/01/04 02:10:09;;;;;;;0.80;0.70;;;9.70;99.90;;;;;;5080896;28;20215;-87
2022/01/04 02:12:46;;;;;;;1.00;0.90;;;9.70;99.90;;;;;;5092347;28;20184;-87
2022/01/04 02:15:15;;;;;;;3.80;1.50;;;9.70;99.90;;;;;;5081845;28;20206;-88
2022/01/04 02:17:41;;;;;;;1.05;0.95;;;9.70;99.90;;;;;;5093223;28;20183;-87
2022/01/04 02:20:08;;;;;;;4.40;1.00;;;9.70;99.90;;;;;;5090073;28;20203;-86
2022/01/04 02:22:34;;;;;;;4.93;0.80;;;9.70;99.90;;;;;;5091699;28;20531;-86
2022/01/04 02:25:01;;;;;;;0.63;0.63;;;;;;;;;;5092475;28;20270;-89
2022/01/04 02:27:26;;;;;;;1.85;0.70;;;9.70;99.90;;;;;;5094336;28;20306;-86
2022/01/04 02:29:52;;;;;;;0.63;0.63;;;9.80;99.90;;;;;;5091099;28;20254;-86
2022/01/04 02:32:18;;;;;;;3.17;1.27;;;9.70;99.90;;;;;;5050826;22;20488;-91
2022/01/04 02:34:53;;;;;;;1.07;0.87;;;9.80;99.90;;;;;;5047252;28;20197;-91
2022/01/04 02:37:23;;;;;;;1.55;0.73;;;9.80;99.90;;;;;;5037649;28;20455;-91
2022/01/04 02:39:49;;;;;;;1.05;0.82;;;9.80;99.90;;;;;;5039160;28;20190;-92
2022/01/04 02:42:16;;;;;;;2.92;0.90;;;9.90;99.90;;;;;;5033266;28;20199;-91
2022/01/04 02:44:42;;;;;;;1.85;1.15;;;;;;;;;;5024878;28;20667;-91
2022/01/04 02:47:12;;;;;;;0.90;0.73;;;9.70;99.90;;;;;;5035341;28;20209;-92
2022/01/04 02:49:39;;;;;;;0.70;0.60;;;9.70;99.90;;;;;;5022513;28;20225;-91
2022/01/04 02:52:05;;;;;;;1.45;0.82;;;9.80;99.90;;;;;;5032772;28;20568;-91
2022/01/04 02:54:31;;;;;;;2.55;1.00;;;9.70;99.90;;;;;;5035581;28;20201;-92
2022/01/04 02:56:57;;;;;;;1.07;0.83;;;;;;;;;;5036617;28;20216;-91
2022/01/04 02:59:23;;;;;;;3.40;1.23;;;;;;;;;;5038245;28;20424;-92
2022/01/04 03:01:49;;;;;;;1.00;0.90;;;;;;;;;;5033054;28;20455;-91
2022/01/04 03:04:15;;;;;;;0.97;0.77;;;;;;;;;;5038174;28;20659;-91
2022/01/04 03:06:41;;;;;;;2.10;1.27;;;;;;;;;;5019733;28;21233;-91
2022/01/04 03:09:07;;;;;;;2.50;1.17;;;;;;;;;;5026908;28;20432;-89
2022/01/04 03:11:34;;;;;;;1.92;1.13;;;9.60;99.90;;;;;;5028776;28;20464;-91
2022/01/04 03:14:00;;;;;;;0.70;0.70;;;9.60;99.90;;;;;;5020846;28;20813;-90
2022/01/04 03:16:26;;;;;;;2.08;1.40;;;9.60;99.90;;;;;;5024871;28;21680;-90
2022/01/04 03:19:03;;;;;;;1.48;1.08;;;;;;;;;;5035767;28;20253;-90
2022/01/04 03:21:30;;;;;;;1.58;0.90;;;9.50;99.90;;;;;;5050739;28;20166;-90
2022/01/04 03:23:56;;;;;;;1.95;1.00;;;;;;;;;;5035365;28;20216;-90
2022/01/04 03:26:22;;;;;;;3.05;1.15;;;;;;;;;;5034277;28;20492;-91
2022/01/04 03:28:48;;;;;;;2.83;1.30;;;;;;;;;;5030658;28;22011;-92
2022/01/04 03:31:14;;;;;;;1.47;1.00;;;;;;;;;;5028660;28;20201;-91
2022/01/04 03:33:40;;;;;;;3.80;1.25;;;;;;;;;;5025982;28;20526;-91
2022/01/04 03:36:06;;;;;;;2.03;1.00;;;;;;;;;;5019602;28;20217;-92
2022/01/04 03:38:41;;;;;;;3.22;1.20;;;9.30;99.90;;;;;;5027977;28;20432;-91
2022/01/04 03:41:13;;;;;;;1.95;1.20;;;9.30;99.90;;;;;;5032301;28;20189;-92
2022/01/04 03:43:42;;;;;;;1.63;1.10;;;;;;;;;;5045363;28;20258;-92
2022/01/04 03:46:08;;;;;;;4.35;1.00;;;;;;;;;;5033955;28;20206;-92
2022/01/04 03:48:34;;;;;;;2.47;1.00;;;;;;;;;;5029663;28;20682;-92
2022/01/04 03:51:00;;;;;;;2.17;1.20;;;;;;;;;;5030955;28;20193;-91
2022/01/04 03:53:26;;;;;;;2.65;1.90;;;;;;;;;;5036059;28;20201;-91
2022/01/04 03:55:55;;;;;;;1.40;1.07;;;9.30;99.90;;;;;;5037204;28;20221;-91
2022/01/04 03:58:21;;;;;;;1.80;1.30;;;;;;;;;;5036797;28;20467;-92
2022/01/04 04:00:47;;;;;;;2.70;1.77;;;;;;;;;;5034340;28;20190;-92
2022/01/04 04:03:13;;;;;;;2.97;1.30;;;;;;;;;;5035535;28;20196;-92
2022/01/04 04:05:39;;;;;;;1.97;1.13;;;;;;;;;;5033668;28;20205;-92
2022/01/04 04:08:05;;;;;;;2.30;1.20;;;;;;;;;;5034111;28;20440;-91
2022/01/04 04:13:20;;;;;;;2.05;1.38;;;;;;;;;;5042852;28;20285;-91
2022/01/04 04:15:47;;;;;;;1.50;1.02;;;9.30;99.90;;;;;;5049818;28;20228;-91
2022/01/04 04:18:13;;;;;;;1.38;1.20;;;;;;;;;;5024984;28;20224;-92
2022/01/04 04:20:39;;;;;;;3.00;1.43;;;;;;;;;;5036023;28;20789;-92
2022/01/04 04:23:06;;;;;;;3.00;1.50;;;9.30;99.90;;;;;;5029190;28;20463;-91
2022/01/04 04:25:32;;;;;;;2.78;1.38;;;;;;;;;;5028135;28;20251;-91
2022/01/04 04:27:58;;;;;;;2.53;1.02;;;;;;;;;;5040029;28;20185;-92
2022/01/04 04:30:24;;;;;;;1.55;1.00;;;;;;;;;;5045882;28;20185;-90
2022/01/04 04:32:50;;;;;;;1.10;1.00;;;;;;;;;;5035729;28;20211;-91
2022/01/04 04:35:16;;;;;;;1.30;1.10;;;;;;;;;;5037416;28;20218;-92
2022/01/04 04:37:43;;;;;;;2.70;1.52;;;;;;;;;;5031626;28;20429;-92
2022/01/04 04:40:09;;;;;;;3.40;1.45;;;9.20;99.90;;;;;;5045219;28;20188;-91
2022/01/04 04:42:36;;;;;;;7.97;1.25;;;;;;;;;;5045312;28;20178;-92
2022/01/04 04:45:02;;;;;;;2.35;1.80;;;;;;;;;;5035943;28;20253;-92
2022/01/04 04:47:28;;;;;;;2.45;0.75;;;;;;;;;;5033716;28;20201;-91
2022/01/04 04:49:54;;;;;;;3.77;1.43;;;;;;;;;;5030099;28;20190;-91
2022/01/04 04:52:20;;;;;;;2.35;1.60;;;;;;;;;;5035887;28;20437;-91
2022/01/04 04:54:46;;;;;;;3.20;1.27;;;;;;;;;;5029775;28;20227;-92
2022/01/04 04:57:12;;;;;;;2.83;1.40;;;;;;;;;;5038221;28;20236;-91
2022/01/04 04:59:38;;;;;;;2.50;1.10;;;;;;;;;;5036047;28;20483;-91
2022/01/04 05:02:07;;;;;;;1.70;1.10;;;;;;;;;;5031111;28;20439;-91
2022/01/04 05:04:33;;;;;;;1.27;1.10;;;;;;;;;;5024745;28;21400;-91
2022/01/04 05:06:59;;;;;;;1.27;1.17;;;;;;;;;;5032513;28;20216;-90
2022/01/04 05:09:25;;;;;;;4.23;0.97;;;;;;;;;;5030823;28;20197;-91
2022/01/04 05:11:51;;;;;;;1.33;1.10;;;;;;;;;;5035833;28;20437;-92
2022/01/04 05:14:17;;;;;;;2.73;1.20;;;;;;;;;;5037064;28;20452;-92
2022/01/04 05:16:57;;;;;;;2.63;1.42;;;;;;;;;;5036483;28;20705;-91
2022/01/04 05:19:23;;;;;;;1.33;1.00;;;9.20;99.90;;;;;;5037320;28;20193;-91
2022/01/04 05:21:49;;;;;;;0.85;0.85;;;;;;;;;;5024377;28;20659;-91
2022/01/04 05:24:17;;;;;;;1.50;1.40;;;;;;;;;;5038789;28;20204;-92
2022/01/04 05:26:43;;;;;;;1.77;1.02;;;;;;;;;;5049578;28;20463;-92
2022/01/04 05:29:09;;;;;;;0.97;0.87;;;;;;;;;;5040166;28;20189;-91
2022/01/04 05:31:38;;;;;;;1.67;1.10;;;;;;;;;;5033774;28;20456;-92
2022/01/04 05:34:04;;;;;;;2.55;1.27;;;;;;;;;;5048509;28;20436;-91
2022/01/04 05:36:30;;;;;;;1.02;0.93;;;;;;;;;;5035174;28;20221;-91
2022/01/04 05:39:03;;;;;;;1.08;0.85;;;;;;;;;;5033309;28;20188;-93
2022/01/04 05:41:29;;;;;;;1.38;0.75;;;;;;;;;;5037981;28;20245;-92
2022/01/04 05:43:58;;;;;;;1.10;1.00;;;;;;;;;;5026095;28;20177;-91
2022/01/04 05:46:29;;;;;;;2.75;1.05;;;;;;;;;;5036395;28;20206;-91
2022/01/04 05:49:27;;;;;;;1.25;1.00;;;9.40;99.90;;;;;;5039761;28;20190;-90
2022/01/04 05:51:53;;;;;;;1.23;0.82;;;;;;;;;;5031098;28;20181;-93
2022/01/04 05:54:28;;;;;;;1.13;0.90;;;9.50;99.90;;;;;;5037228;28;20178;-91
2022/01/04 05:56:57;;;;;;;0.93;0.82;;;;;;;;;;5026619;28;20285;-91
2022/01/04 05:59:22;;;;;;;1.25;0.88;;;9.50;99.90;;;;;;5084565;22;20216;-85
2022/01/04 06:01:48;;;;;;;0.87;0.63;;;9.50;99.90;;;;;;5071528;28;20207;-82
2022/01/04 06:04:14;;;;;;;0.87;0.80;;;9.60;99.90;;;;;;5072814;28;20210;-83
2022/01/04 06:06:41;;;;;;;1.25;0.85;;;9.60;99.90;;;;;;5056305;28;20169;-80
2022/01/04 06:09:08;;;;;;;1.92;1.13;;;;;;;;;;5069440;28;20186;-84
2022/01/04 06:11:56;;;;;;;1.33;0.80;;;9.60;99.90;;;;;;5052273;28;20630;-79
2022/01/04 06:17:09;;;;;;;2.60;1.38;;;9.50;99.90;;;;;;5052492;28;20222;-82
2022/01/04 06:19:34;;;;;;;1.20;1.02;;;9.50;99.90;;;;;;5050195;28;20263;-84
2022/01/04 06:22:00;;;;;;;3.33;1.30;;;9.50;99.90;;;;;;5053069;28;20192;-81
2022/01/04 06:24:25;;;;;;;1.53;0.90;;;9.40;99.90;;;;;;5052748;28;20681;-83
2022/01/04 06:26:52;;;;;;;0.60;0.40;;;9.50;99.90;;;;;;5051280;28;20248;-81
2022/01/04 06:29:20;;;;;;;1.58;0.77;;;9.60;99.90;;;;;;5056818;28;20189;-80
2022/01/04 06:31:46;;;;;;;0.80;0.65;;;9.60;99.90;;;;;;5072285;28;20635;-83
2022/01/04 06:34:12;;;;;;;2.15;0.98;;;9.60;99.90;;;;;;5054832;28;20654;-83
2022/01/04 06:36:38;;;;;;;0.70;0.60;;;9.70;99.90;;;;;;5052607;28;20232;-83
2022/01/04 06:39:04;;;;;;;1.53;0.80;;;9.70;99.90;;;;;;5067816;28;20189;-82
2022/01/04 06:41:29;;;;;;;3.97;0.85;;;9.70;99.90;;;;;;5071140;28;20168;-83
2022/01/04 06:43:55;;;;;;;20.10;11.17;;;9.60;99.90;;;;;;5071093;28;20669;-81
2022/01/04 06:46:21;;;;;;;3.10;1.00;;;;;;;;;;5072917;28;20164;-84
2022/01/04 06:48:46;;;;;;;1.50;1.00;;;9.70;99.90;;;;;;5070672;28;20188;-86
2022/01/04 06:51:12;;;;;;;16.23;10.03;;;9.70;99.90;;;;;;5071476;28;20403;-85
2022/01/04 06:53:37;;;;;;;5.87;4.33;;;9.70;99.90;;;;;;5072620;28;20169;-83
2022/01/04 06:56:03;;;;;;;1.80;1.07;;;9.70;99.90;;;;;;5071577;28;20188;-80
2022/01/04 06:58:30;;;;;;;1.43;1.20;;;9.70;99.90;;;;;;5072518;28;20204;-80
2022/01/04 07:00:56;;;;;;;1.35;0.80;;;9.70;99.90;;;;;;5059971;28;20169;-80
2022/01/04 07:03:21;;;;;;;1.13;0.83;;;9.70;99.90;;;;;;5053560;28;20185;-78
2022/01/04 07:05:47;;;;;;;5.73;2.97;;;9.70;99.90;;;;;;5055067;28;20196;-83
2022/01/04 07:08:12;;;;;;;1.47;1.30;;;9.70;99.90;;;;;;5055410;28;20789;-84
2022/01/04 07:10:38;;;;;;;1.60;1.20;;;9.70;99.90;;;;;;5053353;28;20177;-81
2022/01/04 07:13:03;;;;;;;1.23;0.90;;;9.70;99.90;;;;;;5053856;28;20281;-80
2022/01/04 07:15:29;;;;;;;2.63;1.70;;;9.70;99.90;;;;;;5056523;28;20284;-82
2022/01/04 07:17:54;;;;;;;7.50;2.47;;;9.80;99.90;;;;;;5067537;28;20245;-83
2022/01/04 07:20:20;;;;;;;2.57;1.30;;;9.80;99.90;;;;;;5072533;28;20230;-79
2022/01/04 07:22:45;;;;;;;1.50;1.40;;;9.80;99.90;;;;;;5068267;28;20183;-83
2022/01/04 07:25:11;;;;;;;3.60;2.00;;;9.80;99.90;;;;;;5063608;28;20275;-82
2022/01/04 07:27:37;;;;;;;5.77;4.30;;;9.80;99.90;;;;;;5060660;28;20201;-84
2022/01/04 07:30:03;;;;;;;1.00;0.87;;;9.80;99.90;;;;;;5054946;28;20188;-82
2022/01/04 07:32:29;;;;;;;1.40;1.30;;;9.90;99.90;;;;;;5074619;28;20208;-82
2022/01/04 07:34:56;;;;;;;9.93;7.10;;;9.90;99.90;;;;;;5075932;28;20200;-81
2022/01/04 07:37:22;;;;;;;1.27;1.00;;;9.90;99.90;;;;;;5057167;28;20581;-84
2022/01/04 07:39:48;;;;;;;2.30;0.93;;;9.90;99.90;;;;;;5055371;28;20205;-81
2022/01/04 07:42:14;;;;;;;1.10;0.80;;;9.90;99.90;;;;;;5073917;28;20177;-81
2022/01/04 07:44:40;;;;;;;0.77;0.60;;;9.90;99.90;;;;;;5074675;28;20247;-82
2022/01/04 07:47:05;;;;;;;0.93;0.60;;;9.90;99.90;;;;;;5073415;28;20204;-81
2022/01/04 07:49:31;;;;;;;1.13;0.70;;;9.80;99.90;;;;;;5073793;28;20510;-81
2022/01/04 07:51:56;;;;;;;0.97;0.83;;;9.80;99.90;;;;;;5066641;28;20194;-83
2022/01/04 07:54:22;;;;;;;2.10;0.70;;;9.80;99.90;;;;;;5070336;28;20177;-82
2022/01/04 07:56:47;;;;;;;0.97;0.90;;;9.90;99.90;;;;;;5073047;28;20734;-82
2022/01/04 07:59:14;;;;;;;1.17;0.73;;;10.00;99.90;;;;;;5072837;28;20211;-82
2022/01/04 08:01:40;;;;;;;1.83;1.00;;;10.00;99.90;;;;;;5072723;28;20180;-82
2022/01/04 08:04:05;;;;;;;2.50;0.70;;;10.00;99.90;;;;;;5072867;28;20177;-80
2022/01/04 08:06:32;;;;;;;3.17;0.87;;;;;;;;;;5054061;28;20639;-87
2022/01/04 08:08:57;;;;;;;4.95;4.45;;;10.20;99.90;;;;;;5057158;28;20330;-85
2022/01/04 08:11:25;;;;;;;0.93;0.60;;;;;;;;;;5055391;28;20284;-85
2022/01/04 08:13:51;;;;;;;4.78;3.30;;;10.20;99.90;;;;;;5054699;28;20263;-85
2022/01/04 08:16:17;;;;;;;0.93;0.87;;;10.30;99.90;;;;;;5052476;28;20732;-86
2022/01/04 08:18:43;;;;;;;2.27;0.73;;;10.30;99.90;;;;;;5068456;28;20193;-83
2022/01/04 08:21:09;;;;;;;1.50;1.10;;;10.40;99.90;;;;;;5069496;28;20469;-81
2022/01/04 08:23:35;;;;;;;1.33;0.77;;;10.40;99.90;;;;;;5070554;28;20176;-81
2022/01/04 08:26:00;;;;;;;0.87;0.70;;;10.50;99.90;;;;;;5063447;28;20434;-81
2022/01/04 08:28:26;;;;;;;3.40;3.00;;;10.50;99.90;;;;;;5060710;28;20193;-81
2022/01/04 08:30:51;;;;;;;2.27;1.33;;;10.50;99.90;;;;;;5050885;28;20173;-81
2022/01/04 08:33:17;;;;;;;5.00;0.83;;;10.50;99.90;;;;;;5059505;28;20222;-81
2022/01/04 08:35:43;;;;;;;1.00;0.70;;;10.50;99.90;;;;;;5067003;28;20238;-81
2022/01/04 08:38:09;;;;;;;2.10;0.67;;;10.60;99.90;;;;;;5069729;28;20224;-82
2022/01/04 08:40:34;;;;;;;1.03;0.83;;;10.60;99.90;;;;;;5062185;28;20199;-84
2022/01/04 08:43:00;;;;;;;1.43;1.07;;;10.60;99.90;;;;;;5058806;28;20184;-82
2022/01/04 08:45:27;;;;;;;1.53;0.70;;;10.60;99.90;;;;;;5063732;28;20185;-83
2022/01/04 08:47:52;;;;;;;2.05;0.63;;;10.70;99.90;;;;;;5071602;28;20223;-85
2022/01/04 08:50:20;;;;;;;0.60;0.50;;;10.70;99.90;;;;;;5063992;28;20185;-83
2022/01/04 08:52:49;;;;;;;0.80;0.65;;;10.70;99.90;;;;;;5059803;28;20203;-83
2022/01/04 08:55:14;;;;;;;1.00;0.70;;;10.80;99.90;;;;;;5051815;28;20189;-83
2022/01/04 08:57:40;;;;;;;0.80;0.77;;;10.80;99.90;;;;;;5064859;28;20735;-84
2022/01/04 09:00:07;;;;;;;1.10;0.90;;;10.80;99.90;;;;;;5066461;28;20671;-82
2022/01/04 09:02:33;;;;;;;0.95;0.70;;;10.90;99.90;;;;;;5064116;28;20165;-86
2022/01/04 09:04:59;;;;;;;4.13;0.75;;;10.90;99.90;;;;;;5074011;28;20172;-83
2022/01/04 09:07:26;;;;;;;1.35;1.00;;;11.00;99.90;;;;;;5073362;28;20216;-84
2022/01/04 09:09:52;;;;;;;0.75;0.60;;;11.00;99.90;;;;;;5058761;28;20205;-83
2022/01/04 09:12:19;;;;;;;0.70;0.53;;;11.00;99.90;;;;;;5061332;28;20241;-84
2022/01/04 09:15:04;;;;;;;1.02;0.68;;;11.00;99.90;;;;;;5063867;28;20903;-85
2022/01/04 09:20:14;;;;;;;0.80;0.70;;;11.00;99.90;;;;;;5063284;28;20260;-85
2022/01/04 09:22:41;;;;;;;1.07;0.90;;;11.00;99.90;;;;;;5052790;28;20213;-82
2022/01/04 09:25:09;;;;;;;1.20;0.90;;;11.10;99.90;;;;;;5054791;28;20165;-86
2022/01/04 09:27:35;;;;;;;1.17;0.90;;;11.10;99.90;;;;;;5061129;28;20201;-83
2022/01/04 09:30:04;;;;;;;1.30;0.90;;;11.10;99.90;;;;;;5062665;28;20248;-84
2022/01/04 09:32:31;;;;;;;0.98;0.63;;;11.20;99.90;;;;;;5061779;28;20230;-85
2022/01/04 09:34:56;;;;;;;1.77;0.95;;;11.20;99.90;;;;;;5068054;28;20188;-84
2022/01/04 09:37:24;;;;;;;1.53;1.10;;;11.20;99.90;;;;;;5067138;28;20235;-84
2022/01/04 09:39:50;;;;;;;5.57;2.30;;;11.20;99.90;;;;;;5066904;28;20209;-85
2022/01/04 09:42:16;;;;;;;1.60;1.20;;;11.20;99.90;;;;;;5068507;28;20219;-85
2022/01/04 09:44:41;;;;;;;2.30;0.80;;;11.20;99.90;;;;;;5071708;28;20709;-85
2022/01/04 09:47:07;;;;;;;1.40;1.17;;;;;;;;;;5075024;28;20192;-83
2022/01/04 09:49:33;;;;;;;1.23;1.13;;;11.20;99.90;;;;;;5071718;28;20169;-83
2022/01/04 09:52:00;;;;;;;3.70;1.10;;;11.30;99.90;;;;;;5066104;28;20426;-83
2022/01/04 09:54:26;;;;;;;4.53;2.30;;;11.30;99.90;;;;;;5080133;28;20173;-85
2022/01/04 09:56:52;;;;;;;1.77;1.13;;;11.30;99.90;;;;;;5073083;28;20168;-83
2022/01/04 09:59:19;;;;;;;2.05;0.88;;;11.30;99.90;;;;;;5072286;28;20738;-85
2022/01/04 10:01:51;;;;;;;5.78;1.40;;;11.40;99.90;;;;;;5051962;28;20199;-83
2022/01/04 10:04:18;;;;;;;2.28;1.00;;;11.40;99.90;;;;;;5055472;28;20569;-86
2022/01/04 10:06:58;;;;;;;1.45;0.90;;;11.40;99.90;;;;;;5069719;28;20650;-84
2022/01/04 10:09:35;;;;;;;2.28;1.42;;;11.50;99.90;;;;;;5063119;28;20333;-84
2022/01/04 10:12:01;;;;;;;2.10;1.37;;;11.50;99.90;;;;;;5071578;28;20215;-83
2022/01/04 10:14:29;;;;;;;3.30;1.20;;;11.50;99.90;;;;;;5071830;28;20439;-85
2022/01/04 10:17:13;;;;;;;3.15;0.85;;;11.60;99.90;;;;;;5064196;28;20538;-85
2022/01/04 10:19:51;;;;;;;4.30;0.90;;;11.60;99.90;;;;;;5065969;28;20196;-87
2022/01/04 10:22:20;;;;;;;1.40;0.75;;;11.70;99.90;;;;;;5071516;28;20489;-84
2022/01/04 10:25:11;;;;;;;1.60;0.80;;;11.80;99.90;;;;;;5071658;28;20204;-81
2022/01/04 10:27:41;;;;;;;1.30;0.95;;;11.80;99.90;;;;;;5069275;28;20219;-82
2022/01/04 10:30:07;;;;;;;2.08;1.40;;;11.90;99.90;;;;;;5071084;28;20187;-86
2022/01/04 10:32:47;;;;;;;1.08;0.80;;;11.80;99.90;;;;;;5061393;28;20177;-83
2022/01/04 10:35:27;;;;;;;2.17;1.27;;;11.90;99.90;;;;;;5074513;28;20193;-83
2022/01/04 10:37:54;;;;;;;1.27;0.98;;;12.00;99.90;;;;;;5076192;28;20254;-83
2022/01/04 10:40:20;;;;;;;1.85;1.05;;;12.00;99.90;;;;;;5072373;28;20493;-85
2022/01/04 10:42:46;;;;;;;2.20;1.00;;;12.00;99.90;;;;;;5069858;28;20173;-85
2022/01/04 10:45:25;;;;;;;1.70;0.60;;;12.00;99.90;;;;;;5075108;28;20407;-82
2022/01/04 10:47:52;;;;;;;1.58;1.05;;;12.00;99.90;;;;;;5066414;28;20805;-83
2022/01/04 10:50:34;;;;;;;1.20;0.95;;;12.00;99.90;;;;;;5074170;28;20183;-84
2022/01/04 10:53:01;;;;;;;1.23;0.90;;;12.10;99.90;;;;;;5053732;28;20204;-85
2022/01/04 10:55:36;;;;;;;1.75;1.20;;;12.10;99.90;;;;;;5055615;28;20580;-83
2022/01/04 10:58:04;;;;;;;1.48;1.10;;;12.10;99.90;;;;;;5062369;28;20654;-83
2022/01/04 11:00:31;;;;;;;1.92;0.90;;;12.10;99.90;;;;;;5066204;28;20660;-82
2022/01/04 11:02:58;;;;;;;1.17;1.08;;;;;;;;;;5074473;28;20165;-85
2022/01/04 11:05:25;;;;;;;1.35;0.90;;;12.20;99.90;;;;;;5074835;28;20179;-83
2022/01/04 11:08:04;;;;;;;2.28;0.82;;;12.20;99.90;;;;;;5077027;28;20208;-83
2022/01/04 11:10:35;;;;;;;1.03;0.80;;;12.20;99.90;;;;;;5063717;28;20188;-84
2022/01/04 11:13:02;;;;;;;1.05;0.95;;;12.20;99.90;;;;;;5068267;28;20431;-85
2022/01/04 11:15:29;;;;;;;2.83;1.67;;;12.20;99.90;;;;;;5062751;28;20196;-83
2022/01/04 11:17:56;;;;;;;1.50;1.40;;;12.20;99.90;;;;;;5068221;28;20192;-84
2022/01/04 11:20:22;;;;;;;2.63;1.10;;;12.20;99.90;;;;;;5054582;28;20256;-84
2022/01/04 11:22:49;;;;;;;2.60;1.55;;;12.20;99.90;;;;;;5065513;28;20248;-83
2022/01/04 11:25:17;;;;;;;1.58;1.08;;;12.30;99.90;;;;;;5072797;28;20191;-83
2022/01/04 11:27:43;;;;;;;0.93;0.70;;;12.20;99.90;;;;;;5072772;28;20268;-83
2022/01/04 11:30:32;;;;;;;3.83;2.00;;;12.50;99.90;;;;;;5073940;28;20567;-84
2022/01/04 11:33:03;;;;;;;5.37;1.70;;;12.30;99.90;;;;;;5068113;28;20482;-84
2022/01/04 11:35:29;;;;;;;4.78;1.30;;;12.20;99.90;;;;;;5055240;28;20452;-83
2022/01/04 11:37:58;;;;;;;0.88;0.60;;;12.20;99.90;;;;;;5074334;28;20543;-83
2022/01/04 11:40:24;;;;;;;1.83;1.00;;;;;;;;;;5072491;28;20192;-83
2022/01/04 11:42:51;;;;;;;1.52;0.73;;;12.20;99.90;;;;;;5071431;28;20211;-82
2022/01/04 11:45:41;;;;;;;1.87;1.20;;;12.10;99.90;;;;;;5066533;28;20188;-83
2022/01/04 11:48:28;;;;;;;3.25;1.70;;;12.10;99.90;;;;;;5052650;28;20589;-83
2022/01/04 11:50:56;;;;;;;1.15;1.05;;;12.10;99.90;;;;;;5073653;28;20204;-83
2022/01/04 11:53:22;;;;;;;1.85;1.40;;;12.10;99.90;;;;;;5070709;28;20181;-86
2022/01/04 11:55:54;;;;;;;2.10;1.10;;;12.00;99.90;;;;;;5069501;28;20180;-84
2022/01/04 11:58:25;;;;;;;1.73;1.13;;;12.00;99.90;;;;;;5062044;28;20204;-83
2022/01/04 12:00:58;;;;;;;1.47;1.27;;;12.00;99.90;;;;;;5069813;28;20431;-84
2022/01/04 12:03:37;;;;;;;1.27;0.93;;;12.00;99.90;;;;;;5052798;28;20415;-84
2022/01/04 12:06:05;;;;;;;1.88;1.30;;;;;;;;;;5069361;28;20266;-83
2022/01/04 12:08:37;;;;;;;3.67;1.83;;;12.00;99.90;;;;;;5072145;28;20200;-84
2022/01/04 12:11:17;;;;;;;1.88;1.05;;;12.00;99.90;;;;;;5069221;28;20430;-82
2022/01/04 12:13:54;;;;;;;5.45;2.20;;;11.90;99.90;;;;;;5065038;28;20196;-82
2022/01/04 12:16:42;;;;;;;3.58;1.50;;;11.90;99.90;;;;;;5067393;28;20484;-85
2022/01/04 12:19:09;;;;;;;3.03;1.35;;;11.90;99.90;;;;;;5072297;28;20251;-83
2022/01/04 12:21:40;;;;;;;2.72;1.35;;;11.90;99.90;;;;;;5060450;28;20550;-84
2022/01/04 12:24:07;;;;;;;3.57;1.90;;;11.90;99.90;;;;;;5070803;28;20638;-84
2022/01/04 12:26:34;;;;;;;3.22;1.63;;;11.90;99.90;;;;;;5059619;28;20468;-86
2022/01/04 12:29:00;;;;;;;7.15;2.70;;;;;;;;;;5065272;28;20675;-84
2022/01/04 12:31:49;;;;;;;5.27;1.73;;;11.90;99.90;;;;;;5056896;28;20223;-83
2022/01/04 12:34:33;;;;;;;1.90;1.50;;;11.90;99.90;;;;;;5072925;28;20445;-84
2022/01/04 12:37:00;;;;;;;4.13;2.00;;;11.90;99.90;;;;;;5065414;28;20528;-83
2022/01/04 12:39:40;;;;;;;1.13;0.90;;;11.90;99.90;;;;;;5067157;28;20189;-83
2022/01/04 12:42:09;;;;;;;3.67;2.00;;;11.80;99.90;;;;;;5061221;28;20587;-83
2022/01/04 12:44:34;;;;;;;2.83;2.00;;;11.80;99.90;;;;;;5067039;28;20169;-83
2022/01/04 12:47:01;;;;;;;3.47;1.80;;;11.70;99.90;;;;;;5065605;28;20181;-85
2022/01/04 12:49:29;;;;;;;4.78;1.95;;;13.40;99.90;;;;;;5052950;28;20260;-85
2022/01/04 12:51:57;;;;;;;2.90;1.88;;;11.60;99.90;;;;;;5063015;28;20188;-83
2022/01/04 12:54:23;;;;;;;2.30;1.60;;;;;;;;;;5052628;28;20173;-84
2022/01/04 12:56:55;;;;;;;3.27;1.53;;;11.40;99.90;;;;;;5051738;28;20949;-83
2022/01/04 12:59:21;;;;;;;1.63;1.50;;;;;;;;;;5062342;28;20454;-82
2022/01/04 13:01:48;;;;;;;4.17;1.43;;;11.30;99.90;;;;;;5070431;28;20176;-85
2022/01/04 13:04:23;;;;;;;1.58;0.98;;;11.20;99.90;;;;;;5071601;28;20407;-84
2022/01/04 13:06:49;;;;;;;1.05;0.95;;;10.30;99.90;;;;;;5066128;28;20187;-82
2022/01/04 13:09:23;;;;;;;1.63;0.90;;;9.60;99.90;;;;;;5070474;28;20196;-83
2022/01/04 13:11:58;;;;;;;1.60;0.98;;;9.30;99.90;;;;;;5051852;28;20230;-82
2022/01/04 13:14:32;;;;;;;0.75;0.75;;;9.10;99.90;;;;;;5067600;28;20258;-84
2022/01/04 13:17:03;;;;;;;2.03;0.70;;;8.70;99.90;;;;;;5065072;28;20183;-83
2022/01/04 13:19:29;;;;;;;2.92;1.00;;;8.30;99.90;;;;;;5064872;28;20225;-83
2022/01/04 13:22:07;;;;;;;1.00;0.68;;;8.10;99.90;;;;;;5065878;28;20184;-83
2022/01/04 13:24:36;;;;;;;0.70;0.70;;;7.90;99.90;;;;;;5069619;28;20190;-84
2022/01/04 13:27:26;;;;;;;0.60;0.45;;;7.80;99.90;;;;;;5070516;28;20164;-83
2022/01/04 13:29:54;;;;;;;0.85;0.57;;;7.50;99.90;;;;;;5061838;28;20215;-84
2022/01/04 13:32:52;;;;;;;0.47;0.47;;;7.20;99.90;;;;;;5060496;28;20296;-81